createdAt,value
2022-10-22T00:09:30.391Z,16
2022-10-22T00:19:30.435Z,16
2022-10-22T00:29:30.354Z,16
2022-10-22T00:39:30.422Z,16
2022-10-22T00:49:30.347Z,16
2022-10-22T00:59:30.415Z,16
2022-10-22T01:09:30.580Z,16
2022-10-22T01:19:30.422Z,16
2022-10-22T01:29:30.547Z,15.5
2022-10-22T01:39:30.406Z,15.5
2022-10-22T01:49:30.539Z,15.5
2022-10-22T01:59:30.410Z,15.5
2022-10-22T02:09:30.523Z,15.5
2022-10-22T02:19:30.594Z,15.5
2022-10-22T02:29:30.527Z,15.5
2022-10-22T02:39:30.597Z,15.5
2022-10-22T02:49:30.514Z,15.5
2022-10-22T02:59:30.592Z,15.5
2022-10-22T03:09:30.521Z,15.5
2022-10-22T03:19:30.587Z,15.5
2022-10-22T03:29:30.506Z,15.5
2022-10-22T03:39:30.585Z,15.5
2022-10-22T03:49:30.713Z,15.5
2022-10-22T03:59:30.583Z,15.5
2022-10-22T04:09:30.706Z,15.5
2022-10-22T04:19:30.575Z,15.5
2022-10-22T04:29:30.695Z,15
2022-10-22T04:39:30.571Z,15
2022-10-22T04:49:30.698Z,15
2022-10-22T04:59:30.774Z,15
2022-10-22T05:09:30.687Z,14.5
2022-10-22T05:19:30.764Z,14.5
2022-10-22T05:29:30.691Z,14.5
2022-10-22T05:39:30.756Z,14.5
2022-10-22T05:49:30.685Z,14.5
2022-10-22T05:59:30.754Z,14.5
2022-10-22T06:09:30.724Z,14.5
2022-10-22T06:19:30.747Z,14.5
2022-10-22T06:29:30.878Z,14.5
2022-10-22T06:39:30.748Z,14.5
2022-10-22T06:49:30.877Z,14
2022-10-22T06:59:30.738Z,14
2022-10-22T07:09:30.863Z,14
2022-10-22T07:19:30.733Z,14
2022-10-22T07:29:30.858Z,14
2022-10-22T07:39:30.731Z,14
2022-10-22T07:49:30.855Z,14
2022-10-22T07:59:30.929Z,14
2022-10-22T08:09:30.849Z,15
2022-10-22T08:19:30.924Z,17.5
2022-10-22T08:29:30.839Z,20
2022-10-22T08:39:30.913Z,21.5
2022-10-22T08:49:30.832Z,20.5
2022-10-22T08:59:30.912Z,24
2022-10-22T09:09:31.036Z,19
2022-10-22T09:19:30.909Z,20.5
2022-10-22T09:29:31.030Z,21
2022-10-22T09:39:30.942Z,20
2022-10-22T09:49:31.259Z,19
2022-10-22T09:59:31.023Z,18.5
2022-10-22T10:09:30.945Z,18.5
2022-10-22T10:19:31.019Z,18.5
2022-10-22T10:29:31.050Z,19
2022-10-22T10:39:31.020Z,19
2022-10-22T10:49:31.129Z,19
2022-10-22T10:59:31.020Z,19
2022-10-22T11:09:31.138Z,19.5
2022-10-22T11:19:50.066Z,20
2022-10-22T11:29:32.785Z,20
2022-10-22T11:39:31.010Z,19.5
2022-10-22T11:49:31.149Z,18.5
2022-10-22T11:59:31.014Z,18.5
2022-10-22T12:09:31.137Z,18.5
2022-10-22T12:19:31.208Z,19
2022-10-22T12:29:31.129Z,18.5
2022-10-22T12:39:31.210Z,18.5
2022-10-22T12:49:31.128Z,18
2022-10-22T12:59:31.204Z,18
2022-10-22T13:09:33.049Z,19
2022-10-22T13:19:31.186Z,19
2022-10-22T13:29:31.123Z,19.5
2022-10-22T13:39:31.196Z,20
2022-10-22T13:49:31.311Z,20.5
2022-10-22T13:59:31.180Z,20.5
2022-10-22T14:09:31.314Z,20
2022-10-22T14:19:31.182Z,20
2022-10-22T14:29:31.299Z,19.5
2022-10-22T14:39:31.178Z,20
2022-10-22T14:49:31.298Z,20
2022-10-22T14:59:31.370Z,19.5
2022-10-22T15:09:31.288Z,19.5
2022-10-22T15:19:31.360Z,20
2022-10-22T15:29:31.295Z,19.5
2022-10-22T15:39:31.363Z,19.5
2022-10-22T15:49:31.476Z,19.5
2022-10-22T15:59:31.351Z,18.5
2022-10-22T16:09:31.264Z,18.5
2022-10-22T16:19:31.349Z,18.5
2022-10-22T16:29:31.479Z,18.5
2022-10-22T16:39:31.343Z,18.5
2022-10-22T16:49:31.482Z,18.5
2022-10-22T16:59:31.336Z,17.5
2022-10-22T17:09:31.468Z,17.5
2022-10-22T17:19:32.078Z,17.5
2022-10-22T17:29:31.455Z,17.5
2022-10-22T17:39:31.329Z,17.5
2022-10-22T17:49:31.464Z,16.5
2022-10-22T17:59:31.535Z,16.5
2022-10-22T18:09:31.446Z,16.5
2022-10-22T18:19:31.522Z,16.5
2022-10-22T18:29:31.446Z,16.5
2022-10-22T18:39:31.548Z,16.5
2022-10-22T18:49:31.449Z,16.5
2022-10-22T18:59:31.520Z,16.5
2022-10-22T19:09:31.650Z,16.5
2022-10-22T19:19:31.508Z,16.5
2022-10-22T19:29:31.629Z,16.5
2022-10-22T19:39:31.504Z,16.5
2022-10-22T19:49:31.621Z,16.5
2022-10-22T19:59:32.233Z,16.5
2022-10-22T20:09:31.651Z,16
2022-10-22T20:19:31.499Z,16
2022-10-22T20:29:31.624Z,16
2022-10-22T20:39:31.690Z,15.5
2022-10-22T20:49:31.637Z,15.5
2022-10-22T20:59:31.682Z,15.5
2022-10-22T21:09:31.608Z,15.5
2022-10-22T21:19:31.686Z,15.5
2022-10-22T21:29:31.635Z,16
2022-10-22T21:39:31.690Z,15.5
2022-10-22T21:49:31.610Z,16
2022-10-22T21:59:31.687Z,15.5
2022-10-22T22:09:31.817Z,15.5
2022-10-22T22:19:31.695Z,15.5
2022-10-22T22:29:31.812Z,16
2022-10-22T22:39:31.675Z,16
2022-10-22T22:49:31.793Z,15.5
2022-10-22T22:59:31.687Z,16
2022-10-22T23:09:31.820Z,16
2022-10-22T23:19:31.676Z,16
2022-10-22T23:29:31.785Z,16
2022-10-22T23:39:31.867Z,16
2022-10-22T23:49:31.784Z,15.5
2022-10-22T23:59:31.885Z,16
